createdAt,value
2023-04-26T00:02:21.026Z,95077.28
2023-04-26T00:04:55.827Z,95068.13
2023-04-26T00:07:24.862Z,95074.75
2023-04-26T00:09:53.318Z,95062.97
2023-04-26T00:12:22.052Z,95063.16
2023-04-26T00:14:50.251Z,95061.75
2023-04-26T00:17:18.140Z,95060.44
2023-04-26T00:19:46.964Z,95066.53
2023-04-26T00:22:16.362Z,95056.06
2023-04-26T00:24:44.413Z,95057.78
2023-04-26T00:27:12.710Z,95057.94
2023-04-26T00:29:41.239Z,95064.28
2023-04-26T00:32:09.157Z,95063.03
2023-04-26T00:34:38.438Z,95060.44
2023-04-26T00:37:06.769Z,95058.84
2023-04-26T00:39:35.996Z,95051.88
2023-04-26T00:42:03.916Z,95063.91
2023-04-26T00:44:31.788Z,95070.44
2023-04-26T00:46:59.738Z,95070.97
2023-04-26T00:49:27.721Z,95070.28
2023-04-26T00:51:56.093Z,95062.91
2023-04-26T00:54:23.945Z,95080.59
2023-04-26T00:56:53.361Z,95073.78
2023-04-26T00:59:21.578Z,95072.41
2023-04-26T01:01:49.669Z,95072.38
2023-04-26T01:04:18.512Z,95073.44
2023-04-26T01:06:46.994Z,95081.72
2023-04-26T01:09:15.639Z,95083.16
2023-04-26T01:11:45.300Z,95074.28
2023-04-26T01:14:16.101Z,95078.63
2023-04-26T01:16:46.991Z,95079.69
2023-04-26T01:19:15.367Z,95085.31
2023-04-26T01:21:43.947Z,95092.09
2023-04-26T01:24:14.721Z,95086.22
2023-04-26T01:26:45.797Z,95094.28
2023-04-26T01:29:16.678Z,95096.16
2023-04-26T01:31:44.971Z,95096.56
2023-04-26T01:34:12.823Z,95101.13
2023-04-26T01:36:41.044Z,95096.50
2023-04-26T01:39:09.324Z,95089.13
2023-04-26T01:41:38.665Z,95093.59
2023-04-26T01:44:06.755Z,95099.13
2023-04-26T01:46:34.715Z,95103.06
2023-04-26T01:49:02.564Z,95105.94
2023-04-26T01:51:31.296Z,95106.72
2023-04-26T01:53:59.935Z,95101.16
2023-04-26T01:56:27.707Z,95106.56
2023-04-26T01:58:57.459Z,95105.63
2023-04-26T02:01:25.513Z,95115.03
2023-04-26T02:03:53.468Z,95113.59
2023-04-26T02:06:21.591Z,95106.59
2023-04-26T02:08:49.625Z,95108.50
2023-04-26T02:11:17.635Z,95104.06
2023-04-26T02:13:45.472Z,95098.66
2023-04-26T02:16:16.225Z,95090.25
2023-04-26T02:18:44.376Z,95095.16
2023-04-26T02:21:12.946Z,95091.16
2023-04-26T02:23:40.740Z,95094.22
2023-04-26T02:26:11.689Z,95096.41
2023-04-26T02:28:39.696Z,95093.38
2023-04-26T02:31:07.662Z,95106.34
2023-04-26T02:33:36.906Z,95107.84
2023-04-26T02:36:06.040Z,95091.16
2023-04-26T02:38:36.264Z,95093.53
2023-04-26T02:41:05.983Z,95093.38
2023-04-26T02:43:34.506Z,95093.31
2023-04-26T02:46:02.458Z,95094.00
2023-04-26T02:48:31.939Z,95100.00
2023-04-26T02:51:01.166Z,95105.13
2023-04-26T02:53:29.046Z,95093.22
2023-04-26T02:55:56.819Z,95083.06
2023-04-26T02:58:24.603Z,95085.38
2023-04-26T03:00:54.441Z,95091.09
2023-04-26T03:03:23.056Z,95093.25
2023-04-26T03:05:51.400Z,95090.41
2023-04-26T03:08:20.816Z,95098.97
2023-04-26T03:10:48.666Z,95090.41
2023-04-26T03:13:16.479Z,95094.97
2023-04-26T03:15:45.935Z,95097.69
2023-04-26T03:18:13.786Z,95099.75
2023-04-26T03:20:42.892Z,95110.75
2023-04-26T03:23:13.948Z,95098.50
2023-04-26T03:25:43.098Z,95092.31
2023-04-26T03:28:10.996Z,95095.50
2023-04-26T03:30:39.028Z,95085.00
2023-04-26T03:33:07.077Z,95104.66
2023-04-26T03:35:34.924Z,95106.78
2023-04-26T03:38:02.748Z,95106.94
2023-04-26T03:40:30.553Z,95107.34
2023-04-26T03:42:59.890Z,95103.00
2023-04-26T03:45:27.807Z,95112.00
2023-04-26T03:47:56.721Z,95105.88
2023-04-26T03:50:24.772Z,95101.59
2023-04-26T03:52:52.959Z,95111.44
2023-04-26T03:55:21.238Z,95116.03
2023-04-26T03:57:49.218Z,95122.88
2023-04-26T04:00:18.625Z,95111.28
2023-04-26T04:02:47.961Z,95112.06
2023-04-26T04:05:24.099Z,95108.56
2023-04-26T04:07:52.115Z,95113.59
2023-04-26T04:10:22.883Z,95108.91
2023-04-26T04:12:51.259Z,95116.69
2023-04-26T04:15:21.151Z,95115.56
2023-04-26T04:17:49.945Z,95118.66
2023-04-26T04:20:17.988Z,95116.78
2023-04-26T04:22:46.071Z,95124.72
2023-04-26T04:25:14.143Z,95119.63
2023-04-26T04:27:43.974Z,95121.38
2023-04-26T04:30:12.910Z,95126.94
2023-04-26T04:32:45.048Z,95136.47
2023-04-26T04:35:14.454Z,95135.50
2023-04-26T04:37:44.048Z,95136.94
2023-04-26T04:40:13.374Z,95138.47
2023-04-26T04:42:44.552Z,95156.16
2023-04-26T04:45:12.660Z,95144.78
2023-04-26T04:47:42.217Z,95147.34
2023-04-26T04:50:10.195Z,95152.22
2023-04-26T04:52:38.603Z,95143.16
2023-04-26T04:55:07.189Z,95155.25
2023-04-26T04:57:37.019Z,95147.91
2023-04-26T05:00:10.429Z,95160.41
2023-04-26T05:02:45.994Z,95163.09
2023-04-26T05:05:14.055Z,95170.25
2023-04-26T05:07:41.931Z,95157.84
2023-04-26T05:10:10.364Z,95171.13
2023-04-26T05:12:38.285Z,95182.09
2023-04-26T05:15:07.163Z,95175.31
2023-04-26T05:17:35.174Z,95176.91
2023-04-26T05:20:14.891Z,95173.56
2023-04-26T05:22:42.918Z,95166.88
2023-04-26T05:25:11.595Z,95173.50
2023-04-26T05:27:40.454Z,95179.19
2023-04-26T05:30:16.604Z,95182.25
2023-04-26T05:33:04.937Z,95177.53
2023-04-26T05:35:42.849Z,95177.13
2023-04-26T05:38:10.680Z,95187.31
2023-04-26T05:40:38.591Z,95187.16
2023-04-26T05:43:06.907Z,95186.06
2023-04-26T05:45:36.561Z,95196.25
2023-04-26T05:48:04.813Z,95186.53
2023-04-26T05:50:33.000Z,95187.97
2023-04-26T05:53:02.429Z,95186.78
2023-04-26T05:55:30.611Z,95188.63
2023-04-26T05:57:58.713Z,95204.34
2023-04-26T06:00:26.917Z,95195.25
2023-04-26T06:02:54.941Z,95193.66
2023-04-26T06:05:23.244Z,95204.31
2023-04-26T06:07:51.846Z,95213.19
2023-04-26T06:10:21.141Z,95202.47
2023-04-26T06:12:48.958Z,95216.78
2023-04-26T06:15:18.129Z,95215.81
2023-04-26T06:17:46.228Z,95223.94
2023-04-26T06:20:14.107Z,95219.25
2023-04-26T06:22:42.081Z,95224.84
2023-04-26T06:25:10.492Z,95224.41
2023-04-26T06:27:41.045Z,95234.13
2023-04-26T06:30:11.415Z,95221.84
2023-04-26T06:32:42.996Z,95228.53
2023-04-26T06:35:11.382Z,95223.88
2023-04-26T06:37:39.882Z,95228.88
2023-04-26T06:40:11.044Z,95227.91
2023-04-26T06:42:38.939Z,95229.34
2023-04-26T06:45:23.295Z,95227.47
2023-04-26T06:47:53.161Z,95234.00
2023-04-26T06:50:24.786Z,95234.44
2023-04-26T06:52:52.628Z,95226.66
2023-04-26T06:55:20.650Z,95237.19
2023-04-26T06:57:48.453Z,95233.94
2023-04-26T07:00:17.953Z,95234.50
2023-04-26T07:02:47.359Z,95231.97
2023-04-26T07:05:16.001Z,95232.59
2023-04-26T07:07:43.952Z,95240.97
2023-04-26T07:10:12.129Z,95246.34
2023-04-26T07:12:40.109Z,95243.97
2023-04-26T07:15:09.602Z,95238.31
2023-04-26T07:17:37.425Z,95241.47
2023-04-26T07:20:08.380Z,95247.63
2023-04-26T07:22:36.197Z,95253.00
2023-04-26T07:25:05.351Z,95260.94
2023-04-26T07:27:33.348Z,95248.00
2023-04-26T07:30:01.143Z,95252.53
2023-04-26T07:32:29.250Z,95251.00
2023-04-26T07:34:57.235Z,95242.69
2023-04-26T07:37:26.428Z,95248.63
2023-04-26T07:39:54.211Z,95248.44
2023-04-26T07:42:22.021Z,95247.78
2023-04-26T07:44:49.925Z,95241.75
2023-04-26T07:47:17.740Z,95240.66
2023-04-26T07:49:47.618Z,95237.16
2023-04-26T07:52:15.749Z,95244.22
2023-04-26T07:54:46.802Z,95239.44
2023-04-26T07:57:14.715Z,95247.25
2023-04-26T07:59:42.507Z,95242.38
2023-04-26T08:02:11.056Z,95234.13
2023-04-26T08:04:39.302Z,95235.03
2023-04-26T08:07:07.278Z,95239.81
2023-04-26T08:09:35.034Z,95242.34
2023-04-26T08:12:05.793Z,95236.03
2023-04-26T08:14:35.564Z,95237.72
2023-04-26T08:17:03.615Z,95238.56
2023-04-26T08:19:33.376Z,95235.66
2023-04-26T08:22:01.332Z,95240.22
2023-04-26T08:24:29.177Z,95239.50
2023-04-26T08:26:58.499Z,95244.84
2023-04-26T08:29:27.939Z,95232.88
2023-04-26T08:31:55.786Z,95238.09
2023-04-26T08:34:23.624Z,95241.19
2023-04-26T08:36:51.475Z,95241.47
2023-04-26T08:39:19.277Z,95230.53
2023-04-26T08:41:51.534Z,95239.16
2023-04-26T08:44:24.296Z,95230.78
2023-04-26T08:47:01.619Z,95230.75
2023-04-26T08:49:40.109Z,95230.53
2023-04-26T08:52:11.990Z,95228.06
2023-04-26T08:54:40.841Z,95236.19
2023-04-26T08:57:09.033Z,95238.13
2023-04-26T08:59:38.066Z,95228.75
2023-04-26T09:02:08.425Z,95239.16
2023-04-26T09:04:37.192Z,95243.53
2023-04-26T09:07:05.937Z,95249.56
2023-04-26T09:09:37.782Z,95248.75
2023-04-26T09:12:05.819Z,95248.97
2023-04-26T09:14:33.698Z,95249.91
2023-04-26T09:17:01.953Z,95246.53
2023-04-26T09:19:37.998Z,95235.16
2023-04-26T09:22:06.284Z,95244.34
2023-04-26T09:24:50.587Z,95242.28
2023-04-26T09:27:18.520Z,95237.81
2023-04-26T09:30:00.580Z,95242.63
2023-04-26T09:32:29.214Z,95225.53
2023-04-26T09:34:58.478Z,95239.47
2023-04-26T09:37:26.284Z,95239.81
2023-04-26T09:39:54.167Z,95245.38
2023-04-26T09:42:22.121Z,95237.28
2023-04-26T09:44:50.040Z,95239.91
2023-04-26T09:47:17.803Z,95236.78
2023-04-26T09:49:50.250Z,95247.66
2023-04-26T09:52:20.186Z,95246.09
2023-04-26T09:54:50.111Z,95248.78
2023-04-26T09:57:19.603Z,95240.69
2023-04-26T09:59:48.854Z,95249.97
2023-04-26T10:02:22.775Z,95244.47
2023-04-26T10:04:52.508Z,95235.81
2023-04-26T10:07:23.566Z,95246.56
2023-04-26T10:09:52.338Z,95232.34
2023-04-26T10:12:21.142Z,95229.13
2023-04-26T10:14:49.459Z,95226.88
2023-04-26T10:17:19.754Z,95225.97
2023-04-26T10:19:51.443Z,95221.94
2023-04-26T10:22:23.205Z,95217.34
2023-04-26T10:24:51.687Z,95220.16
2023-04-26T10:27:54.601Z,95209.50
2023-04-26T10:30:24.227Z,95208.28
2023-04-26T10:33:16.490Z,95208.41
2023-04-26T10:36:06.340Z,95216.78
2023-04-26T10:38:36.470Z,95211.00
2023-04-26T10:41:30.332Z,95204.75
2023-04-26T10:43:59.772Z,95202.00
2023-04-26T10:46:41.118Z,95188.56
2023-04-26T10:49:19.353Z,95193.69
2023-04-26T10:52:09.783Z,95194.66
2023-04-26T10:54:53.395Z,95179.69
2023-04-26T10:57:22.602Z,95185.81
2023-04-26T11:00:27.111Z,95173.38
2023-04-26T11:03:03.506Z,95184.22
2023-04-26T11:06:01.460Z,95175.13
2023-04-26T11:08:32.071Z,95170.41
2023-04-26T11:11:13.415Z,95166.25
2023-04-26T11:13:45.246Z,95164.81
2023-04-26T11:16:14.550Z,95157.63
2023-04-26T11:18:51.232Z,95154.09
2023-04-26T11:21:22.536Z,95154.94
2023-04-26T11:23:56.521Z,95153.41
2023-04-26T11:26:33.980Z,95148.47
2023-04-26T11:29:03.358Z,95151.28
2023-04-26T11:31:31.829Z,95143.81
2023-04-26T11:34:05.036Z,95145.69
2023-04-26T11:36:32.866Z,95150.53
2023-04-26T11:39:02.587Z,95143.72
2023-04-26T11:41:31.952Z,95150.44
2023-04-26T11:44:00.536Z,95146.50
2023-04-26T11:46:28.590Z,95148.38
2023-04-26T11:48:57.161Z,95146.63
2023-04-26T11:51:25.249Z,95157.59
2023-04-26T11:53:54.584Z,95155.47
2023-04-26T11:56:23.092Z,95155.19
2023-04-26T11:58:53.631Z,95162.50
2023-04-26T12:01:23.390Z,95153.41
2023-04-26T12:03:52.496Z,95163.06
2023-04-26T12:06:21.002Z,95146.66
2023-04-26T12:08:52.530Z,95150.59
2023-04-26T12:11:21.260Z,95158.69
2023-04-26T12:13:49.171Z,95152.91
2023-04-26T12:16:26.107Z,95151.75
2023-04-26T12:18:55.282Z,95148.84
2023-04-26T12:21:24.340Z,95153.16
2023-04-26T12:23:52.258Z,95159.81
2023-04-26T12:26:20.458Z,95165.03
2023-04-26T12:28:48.405Z,95154.81
2023-04-26T12:31:16.239Z,95158.06
2023-04-26T12:33:45.408Z,95163.13
2023-04-26T12:36:14.007Z,95164.94
2023-04-26T12:38:41.829Z,95146.44
2023-04-26T12:41:09.554Z,95153.31
2023-04-26T12:43:37.373Z,95159.81
2023-04-26T12:46:05.598Z,95156.88
2023-04-26T12:48:33.472Z,95134.63
2023-04-26T12:51:03.216Z,95124.56
2023-04-26T12:53:30.973Z,95138.88
2023-04-26T12:55:58.903Z,95144.94
2023-04-26T12:58:26.843Z,95134.97
2023-04-26T13:00:54.592Z,95143.22
2023-04-26T13:03:22.551Z,95159.63
2023-04-26T13:05:50.761Z,95140.63
2023-04-26T13:08:19.919Z,95137.03
2023-04-26T13:10:47.716Z,95127.91
2023-04-26T13:13:15.515Z,95121.38
2023-04-26T13:15:43.358Z,95111.97
2023-04-26T13:18:11.299Z,95121.75
2023-04-26T13:20:39.156Z,95126.38
2023-04-26T13:23:06.980Z,95129.44
2023-04-26T13:25:36.179Z,95129.53
2023-04-26T13:28:03.959Z,95136.03
2023-04-26T13:30:32.168Z,95127.28
2023-04-26T13:33:00.609Z,95137.22
2023-04-26T13:35:28.469Z,95133.69
2023-04-26T13:37:56.426Z,95115.66
2023-04-26T13:40:24.245Z,95108.81
2023-04-26T13:42:55.667Z,95115.31
2023-04-26T13:45:23.399Z,95114.47
2023-04-26T13:47:51.315Z,95111.44
2023-04-26T13:50:19.672Z,95100.59
2023-04-26T13:52:49.576Z,95104.50
2023-04-26T13:55:17.506Z,95096.00
2023-04-26T13:57:45.645Z,95082.22
2023-04-26T14:00:16.465Z,95085.16
2023-04-26T14:02:44.411Z,95089.56
2023-04-26T14:05:13.091Z,95078.13
2023-04-26T14:07:41.741Z,95103.25
2023-04-26T14:10:10.448Z,95094.44
2023-04-26T14:12:38.275Z,95097.06
2023-04-26T14:15:07.415Z,95088.66
2023-04-26T14:17:37.136Z,95091.41
2023-04-26T14:20:06.686Z,95083.63
2023-04-26T14:22:34.494Z,95090.19
2023-04-26T14:25:02.359Z,95092.09
2023-04-26T14:27:30.122Z,95093.25
2023-04-26T14:29:57.950Z,95099.09
2023-04-26T14:32:25.869Z,95096.28
2023-04-26T14:34:55.070Z,95093.38
2023-04-26T14:37:23.983Z,95093.53
2023-04-26T14:39:51.917Z,95081.13
2023-04-26T14:42:19.778Z,95092.25
2023-04-26T14:44:47.727Z,95081.94
2023-04-26T14:47:15.516Z,95093.63
2023-04-26T14:49:43.279Z,95096.25
2023-04-26T14:52:16.339Z,95082.41
2023-04-26T14:54:44.387Z,95078.44
2023-04-26T14:57:13.133Z,95081.06
2023-04-26T14:59:41.869Z,95089.31
2023-04-26T15:02:09.779Z,95087.47
2023-04-26T15:04:38.112Z,95092.28
2023-04-26T15:07:06.523Z,95085.50
2023-04-26T15:09:35.646Z,95080.25
2023-04-26T15:12:04.741Z,95089.59
2023-04-26T15:14:32.554Z,95082.22
2023-04-26T15:17:00.618Z,95075.19
2023-04-26T15:19:28.560Z,95080.06
2023-04-26T15:21:56.345Z,95079.78
2023-04-26T15:24:24.229Z,95085.50
2023-04-26T15:26:53.609Z,95078.00
2023-04-26T15:29:21.378Z,95075.47
2023-04-26T15:31:49.205Z,95067.78
2023-04-26T15:34:17.206Z,95071.69
2023-04-26T15:36:44.965Z,95083.09
2023-04-26T15:39:13.012Z,95089.13
2023-04-26T15:41:40.864Z,95083.91
2023-04-26T15:44:10.221Z,95083.88
2023-04-26T15:46:38.263Z,95084.72
2023-04-26T15:49:06.346Z,95074.16
2023-04-26T15:51:34.305Z,95076.28
2023-04-26T15:54:02.210Z,95078.78
2023-04-26T15:56:30.144Z,95086.59
2023-04-26T15:58:58.349Z,95086.19
2023-04-26T16:01:29.577Z,95094.09
2023-04-26T16:03:57.670Z,95089.53
2023-04-26T16:06:25.790Z,95091.19
2023-04-26T16:08:53.772Z,95085.81
2023-04-26T16:11:21.940Z,95082.63
2023-04-26T16:13:52.034Z,95081.72
2023-04-26T16:16:20.397Z,95083.47
2023-04-26T16:18:49.850Z,95082.53
2023-04-26T16:21:18.055Z,95079.19
2023-04-26T16:23:46.331Z,95080.19
2023-04-26T16:26:14.159Z,95081.53
2023-04-26T16:28:42.113Z,95085.59
2023-04-26T16:31:10.326Z,95082.13
2023-04-26T16:33:38.203Z,95077.97
2023-04-26T16:36:09.282Z,95091.94
2023-04-26T16:38:37.135Z,95086.22
2023-04-26T16:41:05.255Z,95082.66
2023-04-26T16:43:33.167Z,95080.94
2023-04-26T16:46:02.346Z,95074.78
2023-04-26T16:48:32.094Z,95083.91
2023-04-26T16:51:00.712Z,95086.91
2023-04-26T16:53:30.184Z,95086.91
2023-04-26T16:55:58.562Z,95086.09
2023-04-26T16:58:27.151Z,95089.09
2023-04-26T17:00:55.158Z,95079.59
2023-04-26T17:03:24.064Z,95088.47
2023-04-26T17:05:52.382Z,95091.56
2023-04-26T17:08:20.799Z,95096.78
2023-04-26T17:10:50.249Z,95099.53
2023-04-26T17:13:18.360Z,95096.78
2023-04-26T17:15:46.511Z,95104.47
2023-04-26T17:18:14.330Z,95100.19
2023-04-26T17:20:42.275Z,95111.59
2023-04-26T17:23:10.158Z,95114.38
2023-04-26T17:25:37.950Z,95112.19
2023-04-26T17:28:07.202Z,95114.41
2023-04-26T17:30:35.035Z,95109.69
2023-04-26T17:33:03.027Z,95110.28
2023-04-26T17:35:31.018Z,95115.03
2023-04-26T17:37:58.854Z,95114.69
2023-04-26T17:40:26.708Z,95114.50
2023-04-26T17:42:54.551Z,95114.88
2023-04-26T17:45:24.120Z,95116.50
2023-04-26T17:47:52.036Z,95129.53
2023-04-26T17:50:21.074Z,95128.16
2023-04-26T17:52:49.056Z,95122.63
2023-04-26T17:55:17.043Z,95132.50
2023-04-26T17:57:44.937Z,95125.78
2023-04-26T18:00:13.933Z,95134.28
2023-04-26T18:02:44.362Z,95140.97
2023-04-26T18:05:13.352Z,95142.53
2023-04-26T18:07:41.241Z,95142.53
2023-04-26T18:10:10.089Z,95143.88
2023-04-26T18:12:38.074Z,95138.97
2023-04-26T18:15:06.964Z,95147.84
2023-04-26T18:17:34.816Z,95144.66
2023-04-26T18:20:04.651Z,95144.97
2023-04-26T18:22:32.493Z,95151.31
2023-04-26T18:25:00.448Z,95150.88
2023-04-26T18:27:28.263Z,95155.94
2023-04-26T18:29:56.116Z,95159.47
2023-04-26T18:32:23.985Z,95159.19
2023-04-26T18:34:52.218Z,95164.03
2023-04-26T18:37:21.483Z,95168.69
2023-04-26T18:39:49.748Z,95168.28
2023-04-26T18:42:17.546Z,95168.22
2023-04-26T18:44:45.537Z,95172.75
2023-04-26T18:47:13.336Z,95171.69
2023-04-26T18:49:41.133Z,95182.31
2023-04-26T18:52:09.908Z,95178.78
2023-04-26T18:54:39.416Z,95180.97
2023-04-26T18:57:07.275Z,95182.25
2023-04-26T18:59:35.057Z,95191.59
2023-04-26T19:02:04.356Z,95188.66
2023-04-26T19:04:32.612Z,95195.63
2023-04-26T19:07:01.115Z,95206.69
2023-04-26T19:09:29.927Z,95193.84
2023-04-26T19:12:00.473Z,95198.72
2023-04-26T19:14:28.277Z,95206.81
2023-04-26T19:16:56.348Z,95206.69
2023-04-26T19:19:24.785Z,95199.84
2023-04-26T19:21:54.819Z,95205.06
2023-04-26T19:24:22.865Z,95208.19
2023-04-26T19:26:50.683Z,95206.66
2023-04-26T19:29:20.233Z,95205.38
2023-04-26T19:31:48.100Z,95201.41
2023-04-26T19:34:16.009Z,95207.69
2023-04-26T19:36:44.083Z,95200.66
2023-04-26T19:39:12.128Z,95206.59
2023-04-26T19:41:39.910Z,95205.91
2023-04-26T19:44:07.711Z,95214.53
2023-04-26T19:46:37.847Z,95206.69
2023-04-26T19:49:05.853Z,95209.84
2023-04-26T19:51:33.901Z,95218.13
2023-04-26T19:54:01.829Z,95217.47
2023-04-26T19:56:29.641Z,95223.53
2023-04-26T19:58:57.548Z,95220.97
2023-04-26T20:01:25.381Z,95217.44
2023-04-26T20:03:55.899Z,95226.19
2023-04-26T20:06:23.805Z,95223.88
2023-04-26T20:08:51.574Z,95215.94
2023-04-26T20:11:19.386Z,95219.91
2023-04-26T20:13:48.435Z,95211.28
2023-04-26T20:16:16.376Z,95216.94
2023-04-26T20:18:44.463Z,95213.66
2023-04-26T20:21:13.615Z,95221.22
2023-04-26T20:23:41.535Z,95217.09
2023-04-26T20:26:12.422Z,95220.28
2023-04-26T20:28:40.286Z,95217.38
2023-04-26T20:31:08.211Z,95212.28
2023-04-26T20:33:36.679Z,95215.13
2023-04-26T20:36:04.686Z,95212.34
2023-04-26T20:38:33.923Z,95218.44
2023-04-26T20:41:01.835Z,95217.53
2023-04-26T20:43:29.745Z,95221.66
2023-04-26T20:45:57.622Z,95222.22
2023-04-26T20:48:25.605Z,95223.94
2023-04-26T20:50:55.199Z,95223.91
2023-04-26T20:53:23.077Z,95229.84
2023-04-26T20:55:53.993Z,95224.97
2023-04-26T20:58:21.862Z,95229.13
2023-04-26T21:00:50.680Z,95230.81
2023-04-26T21:03:18.765Z,95236.88
2023-04-26T21:05:46.872Z,95222.53
2023-04-26T21:08:15.092Z,95227.38
2023-04-26T21:10:42.873Z,95225.09
2023-04-26T21:13:12.074Z,95230.19
2023-04-26T21:15:42.129Z,95229.06
2023-04-26T21:18:09.913Z,95230.44
2023-04-26T21:20:37.759Z,95223.53
2023-04-26T21:23:05.630Z,95229.44
2023-04-26T21:25:34.657Z,95232.19
2023-04-26T21:28:02.522Z,95226.41
2023-04-26T21:30:31.868Z,95227.97
2023-04-26T21:32:59.857Z,95232.75
2023-04-26T21:35:27.772Z,95230.09
2023-04-26T21:37:55.688Z,95220.59
2023-04-26T21:40:23.496Z,95221.19
2023-04-26T21:43:03.917Z,95213.28
2023-04-26T21:45:34.294Z,95222.88
2023-04-26T21:48:02.836Z,95221.00
2023-04-26T21:50:30.821Z,95230.84
2023-04-26T21:52:58.729Z,95224.34
2023-04-26T21:55:26.916Z,95229.50
2023-04-26T21:57:54.939Z,95218.81
2023-04-26T22:00:23.241Z,95229.22
2023-04-26T22:02:52.573Z,95227.50
2023-04-26T22:05:20.987Z,95229.47
2023-04-26T22:07:49.071Z,95232.69
2023-04-26T22:10:17.093Z,95228.25
2023-04-26T22:12:45.030Z,95223.03
2023-04-26T22:15:13.178Z,95232.25
2023-04-26T22:17:41.125Z,95235.72
2023-04-26T22:20:11.979Z,95225.38
2023-04-26T22:22:40.783Z,95219.13
2023-04-26T22:25:09.359Z,95240.53
2023-04-26T22:27:37.277Z,95223.75
2023-04-26T22:30:23.142Z,95235.41
2023-04-26T22:32:54.736Z,95228.59
2023-04-26T22:35:24.950Z,95232.25
2023-04-26T22:37:52.765Z,95233.19
2023-04-26T22:40:20.832Z,95233.00
2023-04-26T22:42:48.758Z,95228.38
2023-04-26T22:45:16.769Z,95225.97
2023-04-26T22:47:44.705Z,95225.31
2023-04-26T22:50:12.816Z,95234.69
2023-04-26T22:52:42.067Z,95227.66
2023-04-26T22:55:10.717Z,95240.00
2023-04-26T22:57:38.525Z,95244.63
2023-04-26T23:00:09.544Z,95243.97
2023-04-26T23:02:37.489Z,95248.28
2023-04-26T23:05:08.868Z,95244.91
2023-04-26T23:07:36.689Z,95250.63
2023-04-26T23:10:08.415Z,95240.34
2023-04-26T23:12:37.002Z,95243.34
2023-04-26T23:15:06.147Z,95235.25
2023-04-26T23:17:34.736Z,95241.19
2023-04-26T23:20:02.808Z,95237.41
2023-04-26T23:22:30.571Z,95236.34
2023-04-26T23:24:58.322Z,95243.25
2023-04-26T23:27:27.683Z,95236.91
2023-04-26T23:29:56.746Z,95236.28
2023-04-26T23:32:24.693Z,95242.16
2023-04-26T23:34:52.513Z,95231.81
2023-04-26T23:37:20.312Z,95225.44
2023-04-26T23:39:48.082Z,95229.03
2023-04-26T23:42:15.876Z,95225.53
2023-04-26T23:44:44.971Z,95222.53
2023-04-26T23:47:12.725Z,95227.03
2023-04-26T23:49:40.585Z,95225.47
2023-04-26T23:52:08.362Z,95211.22
2023-04-26T23:54:36.123Z,95223.31
2023-04-26T23:57:04.620Z,95217.63
2023-04-26T23:59:32.418Z,95220.97
